createdAt,value
2023-02-19T00:00:50.031Z,55.77
2023-02-19T00:04:14.723Z,55.86
2023-02-19T00:07:17.305Z,55.73
2023-02-19T00:10:20.401Z,55.77
2023-02-19T00:13:22.916Z,56.87
2023-02-19T00:16:40.042Z,57.02
2023-02-19T00:19:42.542Z,56.41
2023-02-19T00:22:45.673Z,56.39
2023-02-19T00:25:48.165Z,56.41
2023-02-19T00:28:52.668Z,57.17
2023-02-19T00:31:55.654Z,56.27
2023-02-19T00:34:58.849Z,57.22
2023-02-19T00:38:01.497Z,57.25
2023-02-19T00:41:18.999Z,56.02
2023-02-19T00:44:21.770Z,55.75
2023-02-19T00:47:24.773Z,55.70
2023-02-19T00:50:27.490Z,55.77
2023-02-19T00:53:30.454Z,55.57
2023-02-19T00:56:33.303Z,55.88
2023-02-19T00:59:36.932Z,57.13
2023-02-19T01:02:39.477Z,55.94
2023-02-19T01:05:42.569Z,55.59
2023-02-19T01:08:45.762Z,56.15
2023-02-19T01:11:48.912Z,56.13
2023-02-19T01:14:51.625Z,56.26
2023-02-19T01:17:55.494Z,55.47
2023-02-19T01:20:58.134Z,57.17
2023-02-19T01:24:01.150Z,56.16
2023-02-19T01:27:04.038Z,55.77
2023-02-19T01:30:07.642Z,56.39
2023-02-19T01:33:10.323Z,55.85
2023-02-19T01:36:13.911Z,55.50
2023-02-19T01:39:16.500Z,55.80
2023-02-19T01:42:19.697Z,55.76
2023-02-19T01:45:24.237Z,56.10
2023-02-19T01:48:38.141Z,55.50
2023-02-19T01:51:57.755Z,57.13
2023-02-19T01:55:03.613Z,56.77
2023-02-19T01:58:07.685Z,57.18
2023-02-19T02:01:14.093Z,56.64
2023-02-19T02:04:18.821Z,55.87
2023-02-19T02:07:42.767Z,56.14
2023-02-19T02:10:45.611Z,55.75
2023-02-19T02:13:49.188Z,57.84
2023-02-19T02:17:03.030Z,56.84
2023-02-19T02:20:15.370Z,57.29
2023-02-19T02:23:50.033Z,57.21
2023-02-19T02:27:30.579Z,56.25
2023-02-19T02:30:39.576Z,56.45
2023-02-19T02:33:50.170Z,56.35
2023-02-19T02:36:55.822Z,56.77
2023-02-19T02:39:59.530Z,57.20
2023-02-19T02:43:02.292Z,57.19
2023-02-19T02:46:06.696Z,57.30
2023-02-19T02:49:16.902Z,57.07
2023-02-19T02:52:40.041Z,58.21
2023-02-19T02:55:46.536Z,57.11
2023-02-19T02:58:50.841Z,57.80
2023-02-19T03:02:19.000Z,57.54
2023-02-19T03:05:44.332Z,57.39
2023-02-19T03:09:05.489Z,56.67
2023-02-19T03:12:33.558Z,57.85
2023-02-19T03:16:22.807Z,57.22
2023-02-19T03:19:28.759Z,58.60
2023-02-19T03:22:36.338Z,57.89
2023-02-19T03:25:58.865Z,57.54
2023-02-19T03:29:22.215Z,58.27
2023-02-19T03:32:30.991Z,58.05
2023-02-19T03:35:40.308Z,57.73
2023-02-19T03:38:53.127Z,57.91
2023-02-19T03:42:02.576Z,57.04
2023-02-19T03:45:11.903Z,56.64
2023-02-19T03:48:20.447Z,57.46
2023-02-19T03:51:44.101Z,58.21
2023-02-19T03:54:52.118Z,58.87
2023-02-19T03:58:04.892Z,59.65
2023-02-19T04:01:20.087Z,59.75
2023-02-19T04:04:48.688Z,59.83
2023-02-19T04:07:57.554Z,58.70
2023-02-19T04:11:02.873Z,59.14
2023-02-19T04:14:15.659Z,58.18
2023-02-19T04:17:32.491Z,58.77
2023-02-19T04:20:41.157Z,58.17
2023-02-19T04:23:45.827Z,58.63
2023-02-19T04:26:48.873Z,58.90
2023-02-19T04:29:52.086Z,59.65
2023-02-19T04:32:54.718Z,58.62
2023-02-19T04:35:57.652Z,58.69
2023-02-19T04:39:00.119Z,59.31
2023-02-19T04:42:03.138Z,59.27
2023-02-19T04:45:06.132Z,59.47
2023-02-19T04:48:09.606Z,59.64
2023-02-19T04:51:12.639Z,59.17
2023-02-19T04:54:15.910Z,59.55
2023-02-19T04:57:18.493Z,59.66
2023-02-19T05:00:21.712Z,60.19
2023-02-19T05:03:24.320Z,59.44
2023-02-19T05:06:27.683Z,59.81
2023-02-19T05:09:30.271Z,59.79
2023-02-19T05:12:33.393Z,59.96
2023-02-19T05:15:37.633Z,60.03
2023-02-19T05:18:41.431Z,58.83
2023-02-19T05:21:43.802Z,58.52
2023-02-19T05:24:46.827Z,57.20
2023-02-19T05:27:49.508Z,57.27
2023-02-19T05:30:53.286Z,57.45
2023-02-19T05:33:56.478Z,58.26
2023-02-19T05:36:59.656Z,58.16
2023-02-19T05:40:02.297Z,58.57
2023-02-19T05:43:05.661Z,59.28
2023-02-19T05:46:09.533Z,59.84
2023-02-19T05:49:12.672Z,60.26
2023-02-19T05:52:15.442Z,60.90
2023-02-19T05:55:18.879Z,61.11
2023-02-19T05:58:21.416Z,61.90
2023-02-19T06:01:28.037Z,62.63
2023-02-19T06:04:30.858Z,62.26
2023-02-19T06:07:34.077Z,63.13
2023-02-19T06:10:38.511Z,63.33
2023-02-19T06:13:41.343Z,63.95
2023-02-19T06:16:44.336Z,65.31
2023-02-19T06:19:47.225Z,65.70
2023-02-19T06:22:51.027Z,66.43
2023-02-19T06:25:53.901Z,67.63
2023-02-19T06:28:56.789Z,67.86
2023-02-19T06:32:01.058Z,68.41
2023-02-19T06:35:04.691Z,69.07
2023-02-19T06:38:07.592Z,69.23
2023-02-19T06:41:11.836Z,69.35
2023-02-19T06:44:15.080Z,69.32
2023-02-19T06:47:18.008Z,69.31
2023-02-19T06:50:20.802Z,69.46
2023-02-19T06:53:24.405Z,69.71
2023-02-19T06:56:32.713Z,69.68
2023-02-19T06:59:35.534Z,70.17
2023-02-19T07:02:38.430Z,70.26
2023-02-19T07:05:41.447Z,70.93
2023-02-19T07:08:44.779Z,70.98
2023-02-19T07:11:47.711Z,71.29
2023-02-19T07:14:50.521Z,71.87
2023-02-19T07:17:53.394Z,71.80
2023-02-19T07:21:01.732Z,72.05
2023-02-19T07:24:05.828Z,72.91
2023-02-19T07:27:08.818Z,73.35
2023-02-19T07:30:11.958Z,73.34
2023-02-19T07:33:14.910Z,73.20
2023-02-19T07:36:21.520Z,73.32
2023-02-19T07:39:24.776Z,73.61
2023-02-19T07:42:27.709Z,73.94
2023-02-19T07:45:30.635Z,73.19
2023-02-19T07:48:35.380Z,72.86
2023-02-19T07:51:39.925Z,72.68
2023-02-19T07:54:42.802Z,73.19
2023-02-19T07:57:45.643Z,73.95
2023-02-19T08:00:48.610Z,73.79
2023-02-19T08:03:51.743Z,73.74
2023-02-19T08:06:54.262Z,74.64
2023-02-19T08:10:17.371Z,74.06
2023-02-19T08:13:22.654Z,73.06
2023-02-19T08:16:40.769Z,73.53
2023-02-19T08:19:45.297Z,74.85
2023-02-19T08:22:51.051Z,75.10
2023-02-19T08:25:57.367Z,76.23
2023-02-19T08:29:00.525Z,76.30
2023-02-19T08:32:03.133Z,76.03
2023-02-19T08:35:06.566Z,77.00
2023-02-19T08:41:14.802Z,78.99
2023-02-19T08:44:17.503Z,81.05
2023-02-19T08:47:20.643Z,82.50
2023-02-19T08:50:23.271Z,83.51
2023-02-19T08:53:26.809Z,83.28
2023-02-19T08:56:29.372Z,84.89
2023-02-19T08:59:32.468Z,84.69
2023-02-19T09:02:35.752Z,84.40
2023-02-19T09:05:39.863Z,83.76
2023-02-19T09:08:42.615Z,83.44
2023-02-19T09:11:47.820Z,83.17
2023-02-19T09:14:51.698Z,83.42
2023-02-19T09:17:54.797Z,82.71
2023-02-19T09:21:01.646Z,81.30
2023-02-19T09:24:05.126Z,81.06
2023-02-19T09:27:07.725Z,81.51
2023-02-19T09:30:10.977Z,81.62
2023-02-19T09:33:13.446Z,81.96
2023-02-19T09:36:18.678Z,81.15
2023-02-19T09:39:21.489Z,79.65
2023-02-19T09:42:29.973Z,78.37
2023-02-19T09:45:34.840Z,77.37
2023-02-19T09:48:38.040Z,77.18
2023-02-19T09:51:44.872Z,74.62
2023-02-19T09:54:48.226Z,73.17
2023-02-19T09:57:51.956Z,71.31
2023-02-19T10:00:57.049Z,66.25
2023-02-19T10:04:00.396Z,66.63
2023-02-19T10:07:03.869Z,67.53
2023-02-19T10:10:24.481Z,66.89
2023-02-19T10:13:30.414Z,62.71
2023-02-19T10:16:34.242Z,58.29
2023-02-19T10:19:37.109Z,55.19
2023-02-19T10:22:40.007Z,54.28
2023-02-19T10:26:12.227Z,52.56
2023-02-19T10:29:15.105Z,51.27
2023-02-19T10:32:23.972Z,49.83
2023-02-19T10:35:27.082Z,48.32
2023-02-19T10:38:31.862Z,47.26
2023-02-19T10:41:43.110Z,47.61
2023-02-19T10:44:55.547Z,49.53
2023-02-19T10:47:58.602Z,50.88
2023-02-19T10:51:13.424Z,50.66
2023-02-19T10:54:21.949Z,50.04
2023-02-19T10:57:31.317Z,49.04
2023-02-19T11:00:34.186Z,48.83
2023-02-19T11:03:36.976Z,47.20
2023-02-19T11:06:40.178Z,46.39
2023-02-19T11:09:49.536Z,44.64
2023-02-19T11:12:55.391Z,45.17
2023-02-19T11:16:00.053Z,43.25
2023-02-19T11:19:03.014Z,41.05
2023-02-19T11:22:47.053Z,40.45
2023-02-19T11:25:53.076Z,39.82
2023-02-19T11:29:16.733Z,38.56
2023-02-19T11:32:29.701Z,37.84
2023-02-19T11:35:32.440Z,38.58
2023-02-19T11:38:35.496Z,38.86
2023-02-19T11:41:41.043Z,39.21
2023-02-19T11:45:11.115Z,38.57
2023-02-19T11:48:45.378Z,38.62
2023-02-19T11:51:57.246Z,37.40
2023-02-19T11:55:09.083Z,36.74
2023-02-19T11:58:43.236Z,35.70
2023-02-19T12:02:12.000Z,35.55
2023-02-19T12:05:39.778Z,35.20
2023-02-19T12:09:04.703Z,35.76
2023-02-19T12:12:40.727Z,35.36
2023-02-19T12:16:17.809Z,35.29
2023-02-19T12:19:37.024Z,34.76
2023-02-19T12:22:57.699Z,34.86
2023-02-19T12:26:06.690Z,34.72
2023-02-19T12:29:32.235Z,34.65
2023-02-19T12:32:47.742Z,34.87
2023-02-19T12:36:02.980Z,35.37
2023-02-19T12:39:24.047Z,35.67
2023-02-19T12:42:51.745Z,35.46
2023-02-19T12:46:21.554Z,35.49
2023-02-19T12:49:31.739Z,35.01
2023-02-19T12:52:41.027Z,35.46
2023-02-19T12:55:46.660Z,35.02
2023-02-19T12:58:55.303Z,38.99
2023-02-19T13:02:24.010Z,42.11
2023-02-19T13:05:49.948Z,43.75
2023-02-19T13:09:06.474Z,46.35
2023-02-19T13:12:39.131Z,48.40
2023-02-19T13:15:45.433Z,50.11
2023-02-19T13:18:58.839Z,51.64
2023-02-19T13:23:04.453Z,49.55
2023-02-19T13:26:22.256Z,45.51
2023-02-19T13:29:31.497Z,42.50
2023-02-19T13:33:02.535Z,41.52
2023-02-19T13:36:14.505Z,37.75
2023-02-19T13:39:20.755Z,37.46
2023-02-19T13:42:36.883Z,37.11
2023-02-19T13:45:43.934Z,38.67
2023-02-19T13:48:46.948Z,39.71
2023-02-19T13:51:55.440Z,41.16
2023-02-19T13:55:40.761Z,44.72
2023-02-19T13:59:00.198Z,48.09
2023-02-19T14:02:04.566Z,50.20
2023-02-19T14:05:10.327Z,51.88
2023-02-19T14:08:16.184Z,54.14
2023-02-19T14:11:41.884Z,55.82
2023-02-19T14:14:45.568Z,55.88
2023-02-19T14:17:48.690Z,57.91
2023-02-19T14:21:17.084Z,59.19
2023-02-19T14:24:20.395Z,59.57
2023-02-19T14:27:23.784Z,61.36
2023-02-19T14:30:28.188Z,60.98
2023-02-19T14:33:34.382Z,61.59
2023-02-19T14:36:55.152Z,59.86
2023-02-19T14:39:58.988Z,58.09
2023-02-19T14:43:04.657Z,57.65
2023-02-19T14:46:28.130Z,56.41
2023-02-19T14:49:36.745Z,56.62
2023-02-19T14:52:45.769Z,57.00
2023-02-19T14:55:50.630Z,57.57
2023-02-19T14:59:09.759Z,57.50
2023-02-19T15:02:17.392Z,58.54
2023-02-19T15:05:29.630Z,58.97
2023-02-19T15:08:43.822Z,59.93
2023-02-19T15:11:47.041Z,59.63
2023-02-19T15:14:51.211Z,60.95
2023-02-19T15:17:55.519Z,59.62
2023-02-19T15:21:02.562Z,59.29
2023-02-19T15:24:08.977Z,60.73
2023-02-19T15:27:19.134Z,60.79
2023-02-19T15:30:31.357Z,60.78
2023-02-19T15:33:34.977Z,61.31
2023-02-19T15:36:37.919Z,60.88
2023-02-19T15:39:46.627Z,60.72
2023-02-19T15:42:52.309Z,60.54
2023-02-19T15:45:57.853Z,60.43
2023-02-19T15:49:22.039Z,60.27
2023-02-19T15:52:59.366Z,60.25
2023-02-19T15:56:16.932Z,60.43
2023-02-19T15:59:31.966Z,59.98
2023-02-19T16:02:36.070Z,60.85
2023-02-19T16:05:41.811Z,61.13
2023-02-19T16:08:47.022Z,61.00
2023-02-19T16:11:53.219Z,61.54
2023-02-19T16:14:56.201Z,62.20
2023-02-19T16:17:59.556Z,62.42
2023-02-19T16:21:08.080Z,62.74
2023-02-19T16:24:22.862Z,61.58
2023-02-19T16:27:42.411Z,62.74
2023-02-19T16:30:45.474Z,62.54
2023-02-19T16:33:50.079Z,63.05
2023-02-19T16:36:53.180Z,63.21
2023-02-19T16:40:08.534Z,64.94
2023-02-19T16:43:14.463Z,65.53
2023-02-19T16:46:17.517Z,65.78
2023-02-19T16:49:22.660Z,66.98
2023-02-19T16:52:26.603Z,67.19
2023-02-19T16:55:32.646Z,66.39
2023-02-19T16:58:35.493Z,66.30
2023-02-19T17:01:38.805Z,65.62
2023-02-19T17:04:41.633Z,66.62
2023-02-19T17:07:44.401Z,65.75
2023-02-19T17:10:47.439Z,65.79
2023-02-19T17:13:50.605Z,66.17
2023-02-19T17:16:53.692Z,65.90
2023-02-19T17:19:56.620Z,65.99
2023-02-19T17:22:59.482Z,66.24
2023-02-19T17:26:02.822Z,66.08
2023-02-19T17:29:08.477Z,65.87
2023-02-19T17:32:11.745Z,67.15
2023-02-19T17:35:14.882Z,65.98
2023-02-19T17:38:18.922Z,65.65
2023-02-19T17:41:22.062Z,65.08
2023-02-19T17:44:25.048Z,64.46
2023-02-19T17:47:28.178Z,63.85
2023-02-19T17:50:32.720Z,64.63
2023-02-19T17:53:35.650Z,64.21
2023-02-19T17:56:44.013Z,64.41
2023-02-19T17:59:46.943Z,62.93
2023-02-19T18:02:49.866Z,63.37
2023-02-19T18:05:52.999Z,64.52
2023-02-19T18:08:55.754Z,63.22
2023-02-19T18:11:59.021Z,63.46
2023-02-19T18:15:02.263Z,64.05
2023-02-19T18:18:05.584Z,64.27
2023-02-19T18:21:10.138Z,64.49
2023-02-19T18:24:14.094Z,63.70
2023-02-19T18:27:18.843Z,63.94
2023-02-19T18:30:23.928Z,64.54
2023-02-19T18:33:27.196Z,63.69
2023-02-19T18:36:33.003Z,63.95
2023-02-19T18:39:35.702Z,63.63
2023-02-19T18:42:39.931Z,62.67
2023-02-19T18:45:43.400Z,63.73
2023-02-19T18:48:46.896Z,63.91
2023-02-19T18:51:49.721Z,63.25
2023-02-19T18:54:57.321Z,63.05
2023-02-19T18:58:00.035Z,64.20
2023-02-19T19:01:03.380Z,64.49
2023-02-19T19:04:06.807Z,65.12
2023-02-19T19:07:10.874Z,64.33
2023-02-19T19:10:14.952Z,63.61
2023-02-19T19:13:18.231Z,65.21
2023-02-19T19:16:29.118Z,65.80
2023-02-19T19:19:32.464Z,64.98
2023-02-19T19:22:35.154Z,65.27
2023-02-19T19:25:38.272Z,63.95
2023-02-19T19:28:44.487Z,64.50
2023-02-19T19:31:51.205Z,64.18
2023-02-19T19:34:54.167Z,64.84
2023-02-19T19:38:00.553Z,65.10
2023-02-19T19:41:06.669Z,65.21
2023-02-19T19:44:12.456Z,64.64
2023-02-19T19:47:15.122Z,64.22
2023-02-19T19:50:18.777Z,65.18
2023-02-19T19:53:21.462Z,65.88
2023-02-19T19:56:24.669Z,65.51
2023-02-19T19:59:27.466Z,65.66
2023-02-19T20:02:30.721Z,65.36
2023-02-19T20:05:33.706Z,65.08
2023-02-19T20:08:36.673Z,64.79
2023-02-19T20:11:51.317Z,64.70
2023-02-19T20:14:54.262Z,63.18
2023-02-19T20:17:57.962Z,63.57
2023-02-19T20:21:03.674Z,63.69
2023-02-19T20:24:07.121Z,63.76
2023-02-19T20:27:10.164Z,63.85
2023-02-19T20:30:15.500Z,63.50
2023-02-19T20:33:18.810Z,62.95
2023-02-19T20:36:22.044Z,63.36
2023-02-19T20:39:29.101Z,63.30
2023-02-19T20:42:32.211Z,63.62
2023-02-19T20:45:37.271Z,64.38
2023-02-19T20:48:40.198Z,64.57
2023-02-19T20:51:55.190Z,64.34
2023-02-19T20:54:58.085Z,63.32
2023-02-19T20:58:00.946Z,61.61
2023-02-19T21:01:04.089Z,59.17
2023-02-19T21:04:07.179Z,59.50
2023-02-19T21:07:10.085Z,58.18
2023-02-19T21:10:13.571Z,57.86
2023-02-19T21:13:16.439Z,58.58
2023-02-19T21:16:19.472Z,57.48
2023-02-19T21:19:22.442Z,57.99
2023-02-19T21:22:25.428Z,58.01
2023-02-19T21:25:28.954Z,58.42
2023-02-19T21:28:31.905Z,58.25
2023-02-19T21:31:40.219Z,58.54
2023-02-19T21:34:43.289Z,58.38
2023-02-19T21:37:46.548Z,57.40
2023-02-19T21:40:50.773Z,57.88
2023-02-19T21:43:55.182Z,57.65
2023-02-19T21:46:58.103Z,56.94
2023-02-19T21:50:01.110Z,56.90
2023-02-19T21:53:05.670Z,56.02
2023-02-19T21:56:08.900Z,55.05
2023-02-19T21:59:12.372Z,53.57
2023-02-19T22:02:15.436Z,53.79
2023-02-19T22:05:18.981Z,52.05
2023-02-19T22:08:21.819Z,51.73
2023-02-19T22:11:25.272Z,50.61
2023-02-19T22:14:27.856Z,50.02
2023-02-19T22:17:31.145Z,49.80
2023-02-19T22:20:34.755Z,50.58
2023-02-19T22:23:38.004Z,50.27
2023-02-19T22:26:40.783Z,49.09
2023-02-19T22:29:43.888Z,49.82
2023-02-19T22:32:46.393Z,47.96
2023-02-19T22:35:52.186Z,47.37
2023-02-19T22:38:54.877Z,47.87
2023-02-19T22:41:58.149Z,47.24
2023-02-19T22:45:00.943Z,47.59
2023-02-19T22:48:04.036Z,47.27
2023-02-19T22:51:13.376Z,47.25
2023-02-19T22:54:16.996Z,47.93
2023-02-19T22:57:19.612Z,47.43
2023-02-19T23:00:23.150Z,47.80
2023-02-19T23:03:26.008Z,47.33
2023-02-19T23:06:32.081Z,47.72
2023-02-19T23:09:37.830Z,47.50
2023-02-19T23:12:41.246Z,47.98
2023-02-19T23:15:43.712Z,47.97
2023-02-19T23:18:47.014Z,47.76
2023-02-19T23:21:49.911Z,47.82
2023-02-19T23:24:53.078Z,48.30
2023-02-19T23:27:55.595Z,48.27
2023-02-19T23:30:58.914Z,48.19
2023-02-19T23:34:02.382Z,47.97
2023-02-19T23:37:06.705Z,48.79
2023-02-19T23:40:10.093Z,48.08
2023-02-19T23:43:13.263Z,48.51
2023-02-19T23:46:17.847Z,48.10
2023-02-19T23:49:21.485Z,47.61
2023-02-19T23:52:24.163Z,47.61
2023-02-19T23:55:27.792Z,47.44
2023-02-19T23:58:30.350Z,47.41
